createdAt,value
2023-03-04T09:08:53.684Z,9.77
2023-03-04T09:11:22.084Z,11.20
2023-03-04T09:13:50.571Z,7.82
2023-03-04T09:16:19.103Z,10.18
2023-03-04T09:18:47.357Z,8.45
2023-03-04T09:21:15.824Z,10.75
2023-03-04T09:26:23.769Z,8.80
2023-03-04T09:29:02.783Z,10.73
2023-03-04T09:31:31.739Z,9.80
2023-03-04T09:34:00.631Z,7.55
2023-03-04T09:36:28.968Z,7.68
2023-03-04T09:39:00.878Z,6.47
2023-03-04T09:41:54.356Z,7.40
2023-03-04T09:44:30.882Z,10.15
2023-03-04T09:47:11.792Z,9.52
2023-03-04T09:49:43.065Z,6.88
2023-03-04T09:52:34.098Z,5.63
2023-03-04T09:55:05.302Z,6.68
2023-03-04T09:58:12.270Z,6.65
2023-03-04T10:00:48.307Z,5.50
2023-03-04T10:03:25.158Z,6.82
2023-03-04T10:06:06.981Z,6.15
2023-03-04T10:08:50.536Z,7.53
2023-03-04T10:11:43.298Z,8.32
2023-03-04T10:14:23.455Z,9.73
2023-03-04T10:16:59.324Z,7.10
2023-03-04T10:19:32.093Z,6.55
2023-03-04T10:22:00.440Z,7.50
2023-03-04T10:27:08.358Z,7.35
2023-03-04T10:29:37.496Z,6.78
2023-03-04T10:32:06.133Z,6.40
2023-03-04T10:34:34.505Z,8.18
2023-03-04T10:39:50.577Z,8.30
2023-03-04T10:42:18.765Z,9.37
2023-03-04T10:44:55.088Z,7.65
2023-03-04T10:47:30.573Z,8.27
2023-03-04T10:50:02.269Z,7.25
2023-03-04T10:52:39.304Z,6.78
2023-03-04T10:55:24.187Z,7.85
2023-03-04T10:57:57.993Z,7.22
2023-03-04T11:00:30.428Z,7.63
2023-03-04T11:03:29.210Z,5.30
2023-03-04T11:06:20.424Z,5.75
2023-03-04T11:08:57.247Z,9.73
2023-03-04T11:11:38.369Z,6.57
2023-03-04T11:14:16.446Z,7.30
2023-03-04T11:17:03.714Z,7.70
2023-03-04T11:19:42.322Z,5.53
2023-03-04T11:22:15.104Z,7.13
2023-03-04T11:24:44.813Z,5.22
2023-03-04T11:27:22.180Z,5.25
2023-03-04T11:29:59.188Z,6.50
2023-03-04T11:32:32.769Z,6.78
2023-03-04T11:35:37.082Z,6.78
2023-03-04T11:38:44.248Z,6.03
2023-03-04T11:41:26.735Z,5.43
2023-03-04T11:43:55.130Z,5.32
2023-03-04T11:49:37.511Z,6.53
2023-03-04T11:52:31.964Z,6.28
2023-03-04T11:55:09.309Z,5.40
2023-03-04T11:58:05.468Z,6.87
2023-03-04T12:00:54.853Z,5.50
2023-03-04T12:03:49.364Z,7.68
2023-03-04T12:06:33.019Z,5.63
2023-03-04T12:09:10.176Z,6.15
2023-03-04T12:12:08.968Z,7.97
2023-03-04T12:14:40.444Z,6.60
2023-03-04T12:17:34.878Z,8.27
2023-03-04T12:20:26.122Z,7.05
2023-03-04T12:23:34.880Z,4.45
2023-03-04T12:26:09.362Z,5.40
2023-03-04T12:28:45.293Z,6.25
2023-03-04T12:31:35.314Z,5.13
2023-03-04T12:34:28.481Z,5.90
2023-03-04T12:37:14.974Z,6.60
2023-03-04T12:39:52.455Z,8.68
2023-03-04T12:42:38.950Z,9.53
2023-03-04T12:45:23.203Z,6.70
2023-03-04T12:47:57.202Z,6.70
2023-03-04T12:50:42.522Z,4.90
2023-03-04T12:53:26.801Z,6.75
2023-03-04T12:55:57.963Z,6.57
2023-03-04T12:58:33.454Z,9.95
2023-03-04T13:01:11.913Z,6.72
2023-03-04T13:04:07.986Z,6.22
2023-03-04T13:06:39.796Z,7.30
2023-03-04T13:09:58.441Z,5.93
2023-03-04T13:12:26.844Z,6.07
2023-03-04T13:17:44.288Z,5.40
2023-03-04T13:20:30.976Z,5.93
2023-03-04T13:23:00.321Z,6.30
2023-03-04T13:25:44.755Z,6.00
2023-03-04T13:28:27.520Z,5.70
2023-03-04T13:30:58.140Z,5.03
2023-03-04T13:33:26.441Z,7.88
2023-03-04T13:35:57.583Z,5.97
2023-03-04T13:38:29.089Z,6.15
2023-03-04T13:41:18.681Z,5.10
2023-03-04T13:43:55.107Z,5.22
2023-03-04T13:46:26.537Z,4.35
2023-03-04T13:48:57.760Z,3.92
2023-03-04T13:51:32.204Z,3.72
2023-03-04T13:54:00.517Z,5.65
2023-03-04T13:59:09.079Z,8.30
2023-03-04T14:01:43.722Z,6.10
2023-03-04T14:04:41.087Z,4.97
2023-03-04T14:07:28.644Z,5.95
2023-03-04T14:10:06.652Z,4.93
2023-03-04T14:12:45.220Z,6.30
2023-03-04T14:15:24.411Z,7.20
2023-03-04T14:17:55.658Z,5.90
2023-03-04T14:20:31.504Z,5.32
2023-03-04T14:23:05.250Z,6.53
2023-03-04T14:25:36.874Z,6.70
2023-03-04T14:28:11.452Z,5.72
2023-03-04T14:30:43.946Z,5.40
2023-03-04T14:33:19.678Z,6.00
2023-03-04T14:35:50.584Z,5.05
2023-03-04T14:38:18.856Z,5.13
2023-03-04T14:41:00.711Z,5.63
2023-03-04T14:43:31.829Z,5.40
2023-03-04T14:46:03.287Z,6.32
2023-03-04T14:48:37.093Z,5.60
2023-03-04T14:51:07.003Z,5.05
2023-03-04T14:53:37.220Z,7.63
2023-03-04T14:56:08.262Z,4.82
2023-03-04T14:58:39.293Z,3.50
2023-03-04T15:01:29.497Z,4.32
2023-03-04T15:04:00.893Z,6.13
2023-03-04T15:06:34.941Z,6.53
2023-03-04T15:09:24.844Z,5.93
2023-03-04T15:12:03.351Z,4.55
2023-03-04T15:14:53.224Z,6.22
2023-03-04T15:17:39.410Z,4.47
2023-03-04T15:20:12.004Z,5.78
2023-03-04T15:22:49.407Z,5.00
2023-03-04T15:25:20.036Z,5.03
2023-03-04T15:27:50.488Z,5.25
2023-03-04T15:30:34.548Z,4.50
2023-03-04T15:33:02.985Z,4.60
2023-03-04T15:38:04.159Z,7.53
2023-03-04T15:40:37.759Z,4.35
2023-03-04T15:43:07.518Z,5.10
2023-03-04T15:45:38.469Z,5.38
2023-03-04T15:48:08.272Z,7.72
2023-03-04T15:50:59.041Z,8.10
2023-03-04T15:53:32.516Z,6.18
2023-03-04T15:56:02.387Z,6.85
2023-03-04T15:58:34.727Z,4.72
2023-03-04T16:01:04.002Z,6.07
2023-03-04T16:03:32.489Z,6.38
2023-03-04T16:06:00.933Z,4.43
2023-03-04T16:08:29.359Z,4.80
2023-03-04T16:10:57.759Z,5.78
2023-03-04T16:13:26.094Z,6.72
2023-03-04T16:15:54.819Z,5.47
2023-03-04T16:18:23.160Z,4.30
2023-03-04T16:20:52.375Z,6.15
2023-03-04T16:23:24.240Z,6.00
2023-03-04T16:26:02.650Z,4.25
2023-03-04T16:28:31.104Z,6.53
2023-03-04T16:30:59.388Z,6.78
2023-03-04T16:35:55.654Z,6.78
2023-03-04T16:38:27.437Z,5.90
2023-03-04T16:40:57.170Z,5.93
2023-03-04T16:43:26.023Z,6.30
2023-03-04T16:45:56.788Z,5.15
2023-03-04T16:48:25.344Z,7.25
2023-03-04T16:50:57.465Z,5.22
2023-03-04T16:53:37.225Z,3.88
2023-03-04T16:56:13.841Z,6.47
2023-03-04T16:58:45.594Z,4.00
2023-03-04T17:01:20.361Z,3.90
2023-03-04T17:03:49.017Z,4.78
2023-03-04T17:06:18.007Z,4.55
2023-03-04T17:08:46.477Z,4.38
2023-03-04T17:11:21.936Z,6.25
2023-03-04T17:13:51.759Z,4.93
2023-03-04T17:16:20.263Z,5.80
2023-03-04T17:18:48.567Z,4.43
2023-03-04T17:23:49.672Z,5.68
2023-03-04T17:26:18.501Z,4.72
2023-03-04T17:28:47.360Z,3.85
2023-03-04T17:31:18.280Z,4.50
2023-03-04T17:33:47.241Z,5.68
2023-03-04T17:36:17.214Z,4.53
2023-03-04T17:38:45.986Z,5.97
2023-03-04T17:41:15.929Z,6.93
2023-03-04T17:43:49.760Z,4.68
2023-03-04T17:46:20.769Z,5.00
2023-03-04T17:48:49.812Z,4.93
2023-03-04T17:51:18.081Z,6.07
2023-03-04T17:53:46.411Z,6.78
2023-03-04T17:58:42.829Z,5.70
2023-03-04T18:03:46.942Z,6.38
2023-03-04T18:06:15.334Z,5.05
2023-03-04T18:13:41.681Z,4.55
2023-03-04T18:16:13.386Z,5.53
2023-03-04T18:18:42.006Z,6.22
2023-03-04T18:21:10.426Z,4.10
2023-03-04T18:23:38.962Z,6.68
2023-03-04T18:26:07.693Z,6.28
2023-03-04T18:28:36.171Z,5.53
2023-03-04T18:31:05.128Z,4.43
2023-03-04T18:33:34.551Z,4.97
2023-03-04T18:36:06.378Z,3.22
2023-03-04T18:38:37.882Z,3.72
2023-03-04T18:41:10.939Z,3.33
2023-03-04T18:43:42.364Z,4.13
2023-03-04T18:46:29.017Z,4.45
2023-03-04T18:49:02.073Z,5.88
2023-03-04T18:51:30.821Z,4.30
2023-03-04T18:53:59.705Z,4.28
2023-03-04T18:56:39.181Z,5.13
2023-03-04T18:59:14.844Z,3.72
2023-03-04T19:01:43.386Z,4.18
2023-03-04T19:04:12.576Z,5.88
2023-03-04T19:06:40.884Z,3.63
2023-03-04T19:14:05.414Z,4.53
2023-03-04T19:16:33.673Z,4.53
2023-03-04T19:19:02.072Z,4.50
2023-03-04T19:21:30.340Z,5.35
2023-03-04T19:23:58.606Z,5.63
2023-03-04T19:28:54.885Z,6.13
2023-03-04T19:33:51.336Z,4.32
2023-03-04T19:36:19.759Z,5.25
2023-03-04T19:41:17.637Z,6.22
2023-03-04T19:43:46.041Z,7.43
2023-03-04T19:46:14.546Z,6.13
2023-03-04T19:48:42.973Z,6.47
2023-03-04T19:53:43.544Z,4.78
2023-03-04T19:56:12.036Z,6.93
2023-03-04T20:03:36.483Z,5.47
2023-03-04T20:08:34.915Z,8.30
2023-03-04T20:11:16.659Z,8.00
2023-03-04T20:13:45.339Z,6.28
2023-03-04T20:16:14.701Z,6.65
2023-03-04T20:18:45.577Z,6.78
2023-03-04T20:21:14.083Z,8.02
2023-03-04T20:23:42.419Z,8.98
2023-03-04T20:40:31.931Z,9.07
2023-03-04T20:43:00.260Z,9.93
2023-03-04T20:47:56.725Z,9.00
2023-03-04T20:50:25.484Z,8.48
2023-03-04T20:52:53.708Z,8.48
2023-03-04T20:55:22.248Z,8.43
2023-03-04T20:57:50.676Z,7.75
2023-03-04T21:00:19.269Z,9.35
2023-03-04T21:02:47.645Z,9.80
2023-03-04T21:05:16.073Z,10.07
2023-03-04T21:10:12.812Z,11.20
2023-03-04T21:12:41.252Z,11.27
2023-03-04T21:15:10.326Z,10.60
2023-03-04T21:17:38.780Z,10.30
2023-03-04T21:20:07.738Z,10.25
2023-03-04T21:22:36.396Z,11.90
2023-03-04T21:25:05.018Z,11.23
2023-03-04T21:27:33.433Z,14.43
2023-03-04T21:30:01.889Z,12.38
2023-03-04T21:32:30.661Z,14.73
2023-03-04T21:34:59.045Z,14.25
2023-03-04T21:39:57.275Z,14.45
2023-03-04T21:42:25.848Z,15.07
2023-03-04T21:44:54.599Z,15.75
2023-03-04T21:47:26.104Z,17.25
2023-03-04T21:49:54.701Z,15.10
2023-03-04T21:52:23.951Z,18.58
2023-03-04T21:54:52.954Z,15.02
2023-03-04T21:57:22.418Z,15.80
2023-03-04T21:59:51.092Z,16.73
2023-03-04T22:02:22.125Z,15.93
2023-03-04T22:04:50.737Z,18.25
2023-03-04T22:09:48.170Z,14.25
2023-03-04T22:12:19.137Z,13.68
2023-03-04T22:14:48.535Z,16.13
2023-03-04T22:17:17.378Z,17.00
2023-03-04T22:19:47.164Z,16.65
2023-03-04T22:22:15.858Z,17.13
2023-03-04T22:24:44.362Z,17.65
2023-03-04T22:27:12.791Z,16.95
2023-03-04T22:29:41.088Z,13.00
2023-03-04T22:32:09.655Z,15.95
2023-03-04T22:34:39.265Z,16.73
2023-03-04T22:37:07.836Z,18.13
2023-03-04T22:39:36.147Z,17.67
2023-03-04T22:47:00.697Z,14.32
2023-03-04T22:49:29.195Z,17.10
2023-03-04T22:51:57.547Z,18.70
2023-03-04T22:56:53.905Z,16.67
2023-03-04T22:59:22.474Z,17.50
2023-03-04T23:01:50.993Z,17.20
2023-03-04T23:06:48.332Z,20.80
2023-03-04T23:09:17.116Z,17.73
2023-03-04T23:11:45.610Z,18.13
2023-03-04T23:14:14.118Z,17.67
2023-03-04T23:16:43.181Z,19.38
2023-03-04T23:19:17.170Z,23.30
2023-03-04T23:21:47.118Z,19.50
2023-03-04T23:24:15.640Z,21.98
2023-03-04T23:26:44.339Z,21.35
2023-03-04T23:29:16.000Z,20.52
2023-03-04T23:31:44.621Z,22.30
2023-03-04T23:34:13.230Z,22.08
2023-03-04T23:36:41.587Z,22.98
2023-03-04T23:41:38.486Z,16.92
2023-03-04T23:44:07.760Z,20.52
2023-03-04T23:46:36.201Z,21.70
2023-03-04T23:49:05.060Z,22.38
2023-03-04T23:51:34.267Z,25.63
2023-03-04T23:54:02.506Z,20.27
2023-03-04T23:56:32.079Z,21.80
2023-03-04T23:59:01.497Z,23.70
